Terminal Aerodrome Forecast
Issued by NWS

Home | Current Version | Previous Version | Text Only | Print | Product List | Glossary On
Versions: 1 2 3 4 5 6 7 8 9 10 11 12 13 14 15 16 17 18 19
000
FTUS44 KLZK 211300 AAB
TAFADF
TAF AMD
KADF 211330Z 2114/2212 VRB03KT P6SM SCT002 BKN050
      TEMPO 2114/2115 5SM BR SCT002
     FM211600 30009KT P6SM VCTS BKN035CB OVC100
     FM211900 33009KT P6SM VCSH BKN050 BKN100
     FM220000 01005KT P6SM SKC=

USA.gov is the U.S. government's official web portal to all federal, state and local government web resources and services.